Home   Weather   Germany   Rodgau   Past weeks
Flag for Germany

Past Weather in Rodgau, Hesse, Germany — Yesterday and Last 2 Weeks

Currently: 30 °F. Clear. (Weather station: Frankfurt-M-Flughafen Airport, Germany). See more current weather

Past Weather in Rodgau — Graph

°F

Rodgau Temperature Yesterday

Maximum temperature yesterday: 52 °F (at 3:20 pm)
Minimum temperature yesterday: 30 °F (at 5:50 am)
Average temperature yesterday: 40 °F

High & Low Weather Summary for the Past Weeks

 TemperatureHumidityPressure
High61 °F (Feb 16, 2:20 pm)100% (Feb 14, 9:50 pm)30.54 "Hg (Feb 14, 9:50 pm)
Low30 °F (Feb 28, 5:50 am)50% (Feb 25, 5:20 pm)29.15 "Hg (Feb 22, 8:20 pm)
Average47 °F79%29.96 "Hg
* Reported Feb 14 4:20 am — Feb 29 4:20 am, Rodgau. Weather by CustomWeather, © 2024

Note: Actual official high and low records may vary slightly from our data, if they occured in-between our weather recording intervals... More about our weather records

Rodgau Weather History for the Previous 24 Hours

Scroll right to see more
 ConditionsComfort  
Time TempWeatherWind HumidityBarometerVisibility
4:20 am
Thu, Feb 29
30 °FClear.2 mph100%30.09 "Hg10 mi
3:20 am32 °FPassing clouds.3 mph93%30.09 "HgN/A
2:50 am34 °FClear.1 mph87%30.09 "Hg10 mi
2:20 am34 °FClear.3 mph93%30.12 "Hg10 mi
1:50 am34 °FClear.1 mph93%30.12 "Hg10 mi
1:20 am34 °FClear.1 mph93%30.12 "Hg10 mi
12:50 am34 °FClear.1 mph93%30.12 "Hg10 mi
12:20 am34 °FClear.1 mph87%30.15 "Hg10 mi
11:50 pm
Wed, Feb 28
34 °FClear.1 mph93%30.15 "Hg10 mi
11:20 pm34 °FClear.2 mph93%30.15 "Hg10 mi
10:50 pm36 °FClear.2 mph87%30.15 "Hg10 mi
10:20 pm36 °FClear.2 mph87%30.15 "Hg10 mi
9:50 pm37 °FClear.1 mph81%30.15 "Hg10 mi
9:20 pm37 °FClear.1 mph87%30.15 "Hg10 mi
8:50 pm39 °FClear.2 mph81%30.15 "Hg10 mi
8:20 pm39 °FClear.3 mph81%30.15 "Hg10 mi
7:50 pm41 °FClear.No wind76%30.15 "Hg10 mi
7:20 pm41 °FClear.1 mph76%30.15 "Hg10 mi
6:50 pm43 °FClear.1 mph71%30.18 "Hg10 mi
6:20 pm45 °FClear.2 mph71%30.18 "Hg10 mi
5:50 pm46 °FSunny.2 mph66%30.15 "Hg10 mi
5:20 pm50 °FSunny.3 mph58%30.15 "Hg10 mi
4:50 pm52 °FSunny.3 mph54%30.15 "Hg10 mi
4:20 pm52 °FSunny.1 mph54%30.15 "Hg10 mi
3:20 pm52 °FSunny.1 mph54%30.18 "Hg10 mi
2:50 pm50 °FPassing clouds.5 mph58%30.18 "HgN/A
2:20 pm50 °FSunny.3 mph58%30.18 "Hg10 mi
1:50 pm50 °FPassing clouds.5 mph58%30.18 "HgN/A
1:20 pm50 °FSunny.3 mph58%30.18 "Hg10 mi
12:50 pm48 °FSunny.3 mph62%30.21 "Hg10 mi
12:20 pm46 °FSunny.2 mph66%30.21 "Hg10 mi
11:50 am45 °FPassing clouds.6 mph71%30.21 "HgN/A
11:20 am45 °FSunny.3 mph71%30.21 "Hg10 mi
10:50 am43 °FPassing clouds.5 mph76%30.21 "HgN/A
10:20 am41 °FPassing clouds.6 mph81%30.18 "HgN/A
9:50 am41 °FPassing clouds.3 mph81%30.18 "HgN/A
9:20 am37 °FPassing clouds.5 mph87%30.18 "HgN/A
8:50 am37 °FPassing clouds.7 mph87%30.18 "HgN/A
8:20 am36 °FSunny.2 mph93%30.18 "Hg10 mi
7:50 am32 °FIce fog.5 mph100%30.15 "HgN/A
7:20 am32 °FLight fog.7 mph93%30.15 "Hg5 mi
6:50 am30 °FIce fog.2 mph100%30.15 "Hg4 mi
6:20 am30 °FChilly.2 mph100%30.15 "Hg6 mi
5:50 am30 °FIce fog.1 mph100%30.12 "Hg5 mi
5:20 am32 °FIce fog.2 mph93%30.12 "HgN/A
Weather by CustomWeather, © 2024

See weather overview